Time;durP1;ratioP1;P1;durP2;ratioP2;P2;SDS_P1;SDS_P2;PMS_P1;PMS_P2;Temp;Humidity;BMP_temperature;BMP_pressure;BME280_temperature;BME280_humidity;BME280_pressure;Samples;Min_cycle;Max_cycle;Signal;HPM_P1;HPM_P2
2021/07/29 00:00:57;;;;;;;2.33;0.83;;;18.30;99.90;;;;;;6215321;23;20182;-74
2021/07/29 00:03:24;;;;;;;3.27;0.77;;;18.30;99.90;;;;;;6214895;23;20187;-74
2021/07/29 00:05:51;;;;;;;3.00;0.87;;;18.20;99.90;;;;;;6214743;23;20180;-76
2021/07/29 00:08:19;;;;;;;2.83;0.80;;;18.20;99.90;;;;;;6214532;23;20222;-74
2021/07/29 00:10:47;;;;;;;2.07;0.67;;;18.20;99.90;;;;;;6215222;23;20199;-75
2021/07/29 00:13:14;;;;;;;1.27;0.70;;;18.30;99.90;;;;;;6215431;23;20177;-73
2021/07/29 00:15:43;;;;;;;1.60;0.80;;;18.30;99.90;;;;;;6215049;23;20250;-73
2021/07/29 00:20:54;;;;;;;1.13;0.63;;;18.30;99.90;;;;;;6215269;23;20207;-74
2021/07/29 00:23:20;;;;;;;4.10;0.70;;;18.40;99.90;;;;;;6215244;23;20176;-76
2021/07/29 00:25:47;;;;;;;1.70;0.60;;;18.30;99.90;;;;;;6214756;23;20194;-73
2021/07/29 00:28:14;;;;;;;2.87;0.60;;;18.30;99.90;;;;;;6215776;23;20200;-74
2021/07/29 00:30:42;;;;;;;3.47;1.20;;;18.10;99.90;;;;;;6217018;23;20488;-74
2021/07/29 00:33:09;;;;;;;0.97;0.83;;;18.20;99.90;;;;;;6217373;23;20876;-76
2021/07/29 00:35:36;;;;;;;2.13;0.80;;;18.20;99.90;;;;;;6216603;23;20211;-74
2021/07/29 00:38:02;;;;;;;2.87;0.90;;;18.10;99.90;;;;;;6216115;23;20196;-74
2021/07/29 00:40:30;;;;;;;5.27;1.00;;;18.10;99.90;;;;;;6216895;23;20496;-74
2021/07/29 00:42:57;;;;;;;4.23;0.70;;;18.00;99.90;;;;;;6217439;23;20187;-75
2021/07/29 00:45:24;;;;;;;1.77;0.60;;;17.80;99.90;;;;;;6216772;23;20187;-74
2021/07/29 00:47:53;;;;;;;1.87;0.60;;;17.70;99.90;;;;;;6215922;23;20201;-73
2021/07/29 00:50:20;;;;;;;2.23;0.60;;;17.60;99.90;;;;;;6216714;23;20180;-76
2021/07/29 00:52:48;;;;;;;1.90;0.70;;;17.60;99.90;;;;;;6216919;23;20182;-75
2021/07/29 00:55:17;;;;;;;2.50;0.80;;;17.60;99.90;;;;;;6216722;23;20200;-77
2021/07/29 00:57:44;;;;;;;3.10;0.90;;;17.70;99.90;;;;;;6216349;23;20314;-73
2021/07/29 01:00:12;;;;;;;1.97;0.73;;;17.60;99.90;;;;;;6216611;23;20184;-75
2021/07/29 01:02:39;;;;;;;2.30;0.70;;;17.70;99.90;;;;;;6217358;23;20509;-74
2021/07/29 01:05:09;;;;;;;0.67;0.50;;;17.80;99.90;;;;;;6216004;23;20639;-75
2021/07/29 01:07:36;;;;;;;1.77;0.60;;;17.70;99.90;;;;;;6216535;23;20200;-73
2021/07/29 01:10:04;;;;;;;2.03;0.70;;;17.60;99.90;;;;;;6216650;23;20226;-73
2021/07/29 01:12:31;;;;;;;0.93;0.60;;;17.60;99.90;;;;;;6216803;23;20203;-75
2021/07/29 01:14:58;;;;;;;2.80;0.60;;;17.70;99.90;;;;;;6216068;23;20211;-73
2021/07/29 01:17:25;;;;;;;2.53;0.73;;;17.70;99.90;;;;;;6216029;23;20628;-74
2021/07/29 01:19:51;;;;;;;2.20;0.80;;;17.60;99.90;;;;;;6216613;23;20226;-74
2021/07/29 01:22:20;;;;;;;1.17;0.60;;;17.60;99.90;;;;;;6216900;23;20199;-73
2021/07/29 01:24:46;;;;;;;2.90;0.70;;;17.50;99.90;;;;;;6216301;23;20191;-74
2021/07/29 01:27:13;;;;;;;1.77;0.50;;;17.60;99.90;;;;;;6215860;23;20183;-74
2021/07/29 01:29:40;;;;;;;1.40;0.70;;;17.60;99.90;;;;;;6216795;23;20180;-73
2021/07/29 01:32:07;;;;;;;1.87;0.50;;;17.70;99.90;;;;;;6216069;23;20191;-74
2021/07/29 01:34:34;;;;;;;2.43;0.80;;;17.70;99.90;;;;;;6216208;23;20177;-74
2021/07/29 01:37:01;;;;;;;2.53;0.80;;;17.60;99.90;;;;;;6216090;23;20262;-76
2021/07/29 01:39:29;;;;;;;1.97;0.67;;;17.50;99.90;;;;;;6215822;23;20585;-73
2021/07/29 01:41:56;;;;;;;3.97;0.63;;;17.60;99.90;;;;;;6216101;23;20181;-76
2021/07/29 01:44:23;;;;;;;3.10;0.67;;;17.70;99.90;;;;;;6215907;23;20203;-73
2021/07/29 01:46:50;;;;;;;1.83;0.80;;;17.60;99.90;;;;;;6215821;23;20180;-74
2021/07/29 01:49:22;;;;;;;1.47;0.50;;;17.50;99.90;;;;;;6216613;23;20200;-73
2021/07/29 01:51:49;;;;;;;1.57;0.80;;;17.50;99.90;;;;;;6216629;23;20235;-73
2021/07/29 01:54:16;;;;;;;4.43;0.80;;;17.50;99.90;;;;;;6215992;23;20181;-74
2021/07/29 01:56:44;;;;;;;2.23;1.00;;;17.50;99.90;;;;;;6216146;23;20254;-76
2021/07/29 01:59:11;;;;;;;1.90;0.67;;;17.40;99.90;;;;;;6216079;23;20251;-75
2021/07/29 02:01:40;;;;;;;2.40;0.50;;;17.50;99.90;;;;;;6215770;23;20180;-76
2021/07/29 02:04:07;;;;;;;1.03;0.67;;;17.40;99.90;;;;;;6216316;23;20182;-73
2021/07/29 02:06:37;;;;;;;0.90;0.60;;;17.40;99.90;;;;;;6215368;23;20235;-73
2021/07/29 02:09:04;;;;;;;1.60;0.67;;;17.40;99.90;;;;;;6215609;23;20197;-73
2021/07/29 02:11:34;;;;;;;0.93;0.63;;;17.30;99.90;;;;;;6216047;23;20512;-74
2021/07/29 02:14:02;;;;;;;2.90;0.70;;;17.30;99.90;;;;;;6216471;23;20242;-74
2021/07/29 02:16:30;;;;;;;3.43;0.60;;;17.30;99.90;;;;;;6215783;23;20214;-76
2021/07/29 02:18:57;;;;;;;2.27;1.10;;;17.20;99.90;;;;;;6215749;23;20590;-73
2021/07/29 02:21:24;;;;;;;2.03;0.80;;;17.30;99.90;;;;;;6215876;23;20182;-73
2021/07/29 02:23:50;;;;;;;2.10;0.67;;;17.20;99.90;;;;;;6215995;23;20176;-73
2021/07/29 02:26:17;;;;;;;2.43;0.80;;;17.20;99.90;;;;;;6215819;23;20190;-75
2021/07/29 02:28:44;;;;;;;2.47;0.50;;;17.20;99.90;;;;;;6215835;23;20678;-74
2021/07/29 02:31:12;;;;;;;1.47;0.70;;;17.20;99.90;;;;;;6216091;23;20180;-75
2021/07/29 02:33:39;;;;;;;1.77;0.60;;;17.20;99.90;;;;;;6216199;23;20180;-75
2021/07/29 02:36:06;;;;;;;0.90;0.50;;;17.30;99.90;;;;;;6215401;23;20234;-74
2021/07/29 02:38:33;;;;;;;1.40;0.60;;;17.30;99.90;;;;;;6215921;23;20246;-75
2021/07/29 02:41:00;;;;;;;1.70;0.60;;;17.30;99.90;;;;;;6216050;23;20183;-73
2021/07/29 02:43:27;;;;;;;2.27;0.70;;;17.30;99.90;;;;;;6215683;23;20176;-76
2021/07/29 02:45:54;;;;;;;0.93;0.60;;;17.30;99.90;;;;;;6215482;23;20267;-74
2021/07/29 02:48:22;;;;;;;3.80;1.00;;;17.20;99.90;;;;;;6215794;23;20203;-74
2021/07/29 02:50:53;;;;;;;2.70;0.60;;;17.20;99.90;;;;;;6215966;23;20176;-76
2021/07/29 02:53:20;;;;;;;2.67;0.70;;;17.20;99.90;;;;;;6215411;23;20176;-73
2021/07/29 02:55:47;;;;;;;2.80;1.10;;;17.20;99.90;;;;;;6215424;23;20207;-73
2021/07/29 02:58:14;;;;;;;2.83;0.77;;;17.20;99.90;;;;;;6215302;23;20198;-75
2021/07/29 03:00:41;;;;;;;2.47;0.60;;;17.00;99.90;;;;;;6215075;23;20263;-74
2021/07/29 03:03:07;;;;;;;1.10;0.60;;;17.10;99.90;;;;;;6215245;23;20180;-75
2021/07/29 03:05:36;;;;;;;3.40;0.83;;;17.20;99.90;;;;;;6215306;23;20181;-76
2021/07/29 03:08:02;;;;;;;1.80;0.90;;;17.20;99.90;;;;;;6214601;23;20222;-76
2021/07/29 03:10:29;;;;;;;2.77;0.60;;;17.00;99.90;;;;;;6215319;23;20227;-76
2021/07/29 03:12:56;;;;;;;2.83;0.60;;;16.90;99.90;;;;;;6215697;23;20176;-76
2021/07/29 03:15:23;;;;;;;0.73;0.50;;;16.90;99.90;;;;;;6214767;23;20203;-76
2021/07/29 03:17:49;;;;;;;3.87;0.70;;;16.90;99.90;;;;;;6215043;23;20667;-75
2021/07/29 03:20:16;;;;;;;2.03;0.90;;;16.80;99.90;;;;;;6215731;23;20485;-73
2021/07/29 03:22:44;;;;;;;1.90;0.87;;;16.80;99.90;;;;;;6215377;23;20176;-74
2021/07/29 03:25:12;;;;;;;5.70;0.80;;;16.70;99.90;;;;;;6214826;23;20192;-76
2021/07/29 03:27:38;;;;;;;6.13;0.60;;;16.70;99.90;;;;;;6215309;23;20205;-73
2021/07/29 03:30:06;;;;;;;3.80;0.50;;;16.60;99.90;;;;;;6214753;23;20180;-74
2021/07/29 03:32:33;;;;;;;0.87;0.50;;;16.50;99.90;;;;;;6215661;23;20176;-73
2021/07/29 03:35:00;;;;;;;4.00;0.70;;;16.50;99.90;;;;;;6214565;23;20654;-76
2021/07/29 03:37:27;;;;;;;5.03;0.60;;;16.40;99.90;;;;;;6215007;23;20216;-75
2021/07/29 03:39:55;;;;;;;8.80;0.80;;;16.40;99.90;;;;;;6215001;23;20180;-76
2021/07/29 03:42:24;;;;;;;2.07;0.60;;;16.40;99.90;;;;;;6215485;23;20183;-76
2021/07/29 03:44:51;;;;;;;4.53;1.17;;;16.40;99.90;;;;;;6215515;23;20184;-76
2021/07/29 03:47:17;;;;;;;4.03;1.10;;;16.40;99.90;;;;;;6215213;23;20199;-75
2021/07/29 03:49:44;;;;;;;1.60;0.60;;;16.40;99.90;;;;;;6215565;23;20259;-77
2021/07/29 03:52:11;;;;;;;1.60;0.47;;;16.40;99.90;;;;;;6215162;23;20177;-74
2021/07/29 03:54:38;;;;;;;3.00;0.90;;;16.30;99.90;;;;;;6214986;23;20182;-75
2021/07/29 03:57:09;;;;;;;3.97;0.60;;;16.20;99.90;;;;;;6215129;23;20234;-75
2021/07/29 03:59:37;;;;;;;0.90;0.60;;;16.30;99.90;;;;;;6214807;23;20484;-76
2021/07/29 04:02:10;;;;;;;1.43;0.73;;;16.30;99.90;;;;;;6214554;23;20608;-76
2021/07/29 04:04:38;;;;;;;5.20;1.00;;;16.30;99.90;;;;;;6215307;23;20504;-75
2021/07/29 04:07:06;;;;;;;5.50;0.70;;;16.20;99.90;;;;;;6215184;23;20187;-75
2021/07/29 04:09:33;;;;;;;2.73;0.60;;;16.20;99.90;;;;;;6214715;23;20191;-73
2021/07/29 04:12:00;;;;;;;2.50;0.60;;;16.10;99.90;;;;;;6214584;23;20568;-73
2021/07/29 04:14:28;;;;;;;2.23;0.63;;;16.10;99.90;;;;;;6214337;23;20186;-73
2021/07/29 04:16:56;;;;;;;3.37;0.60;;;16.10;99.90;;;;;;6214524;23;20291;-77
2021/07/29 04:19:23;;;;;;;3.97;0.73;;;16.10;99.90;;;;;;6215532;23;20204;-77
2021/07/29 04:21:50;;;;;;;4.90;0.70;;;16.10;99.90;;;;;;6214585;23;20181;-77
2021/07/29 04:24:17;;;;;;;2.90;0.60;;;16.20;99.90;;;;;;6214635;23;20290;-77
2021/07/29 04:26:44;;;;;;;6.43;0.80;;;16.20;99.90;;;;;;6215341;23;20177;-77
2021/07/29 04:29:11;;;;;;;2.87;0.60;;;16.20;99.90;;;;;;6214690;23;20207;-77
2021/07/29 04:31:40;;;;;;;3.00;0.60;;;16.20;99.90;;;;;;6214720;23;20183;-77
2021/07/29 04:34:06;;;;;;;2.83;0.60;;;16.20;99.90;;;;;;6214836;23;20181;-77
2021/07/29 04:36:39;;;;;;;2.93;0.73;;;16.10;99.90;;;;;;6214755;23;20208;-76
2021/07/29 04:39:06;;;;;;;3.50;0.93;;;16.10;99.90;;;;;;6214165;23;20204;-76
2021/07/29 04:41:33;;;;;;;6.47;0.83;;;16.10;99.90;;;;;;6214645;23;20180;-76
2021/07/29 04:44:00;;;;;;;4.20;0.70;;;16.20;99.90;;;;;;6214514;23;20183;-76
2021/07/29 04:46:26;;;;;;;3.23;0.50;;;16.20;99.90;;;;;;6214730;23;20267;-77
2021/07/29 04:48:55;;;;;;;3.03;0.50;;;16.30;99.90;;;;;;6214627;23;20200;-76
2021/07/29 04:51:21;;;;;;;1.13;0.70;;;16.30;99.90;;;;;;6215231;23;20183;-75
2021/07/29 04:53:48;;;;;;;0.53;0.40;;;16.40;99.90;;;;;;6214359;23;20640;-78
2021/07/29 04:56:15;;;;;;;3.13;0.80;;;16.50;99.90;;;;;;6214644;23;20205;-76
2021/07/29 04:58:42;;;;;;;2.30;0.63;;;16.60;99.90;;;;;;6215031;23;20512;-75
2021/07/29 05:01:09;;;;;;;3.20;0.60;;;16.80;99.90;;;;;;6214396;23;20180;-77
2021/07/29 05:03:36;;;;;;;2.20;0.60;;;17.30;99.90;;;;;;6214160;23;20292;-76
2021/07/29 05:06:04;;;;;;;1.87;0.80;;;17.90;99.90;;;;;;6214526;23;20176;-76
2021/07/29 05:08:31;;;;;;;2.73;0.73;;;18.40;99.90;;;;;;6214466;23;20694;-77
2021/07/29 05:10:58;;;;;;;1.85;0.50;;;18.80;99.90;;;;;;6215100;23;20183;-75
2021/07/29 05:13:24;;;;;;;2.60;0.50;;;19.60;99.90;;;;;;6214909;23;20183;-77
2021/07/29 05:15:51;;;;;;;1.02;0.60;;;19.90;99.90;;;;;;6216117;23;20177;-76
2021/07/29 05:18:18;;;;;;;3.90;0.82;;;20.30;99.90;;;;;;6216416;23;20212;-76
2021/07/29 05:20:45;;;;;;;0.70;0.50;;;20.60;99.90;;;;;;6216753;23;20188;-76
2021/07/29 05:23:13;;;;;;;3.03;0.57;;;21.20;99.90;;;;;;6216743;23;20180;-77
2021/07/29 05:25:40;;;;;;;2.38;0.60;;;21.80;99.90;;;;;;6216363;23;20184;-77
2021/07/29 05:28:06;;;;;;;0.85;0.60;;;21.90;99.90;;;;;;6216563;23;20206;-76
2021/07/29 05:30:36;;;;;;;2.83;0.50;;;22.10;99.90;;;;;;6216276;23;20215;-77
2021/07/29 05:33:04;;;;;;;2.58;0.63;;;21.90;99.90;;;;;;6216217;23;20176;-77
2021/07/29 05:35:31;;;;;;;2.47;0.77;;;21.70;99.90;;;;;;6216290;23;20208;-76
2021/07/29 05:37:58;;;;;;;2.35;0.70;;;21.50;99.90;;;;;;6216055;23;20208;-77
2021/07/29 05:40:27;;;;;;;2.35;0.70;;;21.60;99.90;;;;;;6215850;23;20650;-75
2021/07/29 05:42:53;;;;;;;1.05;0.50;;;21.70;99.90;;;;;;6216298;23;20177;-76
2021/07/29 05:45:20;;;;;;;3.65;1.25;;;21.50;99.90;;;;;;6215740;23;20180;-74
2021/07/29 05:47:47;;;;;;;2.25;0.93;;;21.90;99.90;;;;;;6215914;23;20525;-74
2021/07/29 05:50:14;;;;;;;3.72;0.80;;;22.00;99.90;;;;;;6216609;23;20176;-75
2021/07/29 05:52:41;;;;;;;2.53;0.68;;;21.50;99.90;;;;;;6216187;23;20514;-75
2021/07/29 05:55:08;;;;;;;2.20;0.52;;;21.40;99.90;;;;;;6215903;23;20559;-75
2021/07/29 05:57:36;;;;;;;3.40;0.60;;;21.50;99.90;;;;;;6216058;23;20213;-73
2021/07/29 06:00:06;;;;;;;1.90;0.77;;;21.90;99.90;;;;;;6216388;23;20176;-77
2021/07/29 06:02:33;;;;;;;1.13;0.68;;;21.80;99.90;;;;;;6216215;23;20203;-77
2021/07/29 06:05:00;;;;;;;2.90;0.65;;;22.30;99.90;;;;;;6216722;23;20182;-78
2021/07/29 06:07:28;;;;;;;2.58;0.68;;;23.00;99.90;;;;;;6216665;23;20190;-78
2021/07/29 06:09:55;;;;;;;4.43;0.60;;;23.40;99.90;;;;;;6216078;23;20184;-77
2021/07/29 06:12:24;;;;;;;2.90;0.82;;;23.60;99.90;;;;;;6214906;23;20627;-76
2021/07/29 06:14:53;;;;;;;4.00;0.52;;;23.40;99.90;;;;;;6215586;23;20177;-75
2021/07/29 06:17:24;;;;;;;3.08;0.80;;;23.50;99.90;;;;;;6215814;23;20287;-75
2021/07/29 06:19:51;;;;;;;1.88;0.43;;;23.90;99.90;;;;;;6215943;23;20176;-76
2021/07/29 06:22:18;;;;;;;1.73;0.70;;;23.90;99.90;;;;;;6216186;23;20176;-76
2021/07/29 06:24:47;;;;;;;2.20;0.73;;;23.00;99.90;;;;;;6216175;23;20191;-74
2021/07/29 06:27:14;;;;;;;1.95;0.60;;;22.70;99.90;;;;;;6216074;23;20177;-75
2021/07/29 06:29:41;;;;;;;5.10;0.70;;;23.40;99.90;;;;;;6215700;23;20182;-76
2021/07/29 06:32:09;;;;;;;2.10;0.60;;;23.30;99.90;;;;;;6215688;23;20184;-77
2021/07/29 06:34:37;;;;;;;1.77;0.65;;;23.70;99.90;;;;;;6215238;23;20180;-76
2021/07/29 06:37:04;;;;;;;2.03;0.90;;;24.50;99.90;;;;;;6215682;23;20266;-76
2021/07/29 06:39:31;;;;;;;1.65;0.90;;;25.00;99.90;;;;;;6216094;23;20196;-76
2021/07/29 06:41:58;;;;;;;3.97;0.80;;;25.10;99.90;;;;;;6216150;23;20176;-76
2021/07/29 06:44:25;;;;;;;1.83;0.65;;;24.30;99.90;;;;;;6215442;23;20180;-76
2021/07/29 06:46:51;;;;;;;0.38;0.30;;;23.90;99.90;;;;;;6216198;23;20267;-76
2021/07/29 06:49:20;;;;;;;3.00;1.00;;;24.00;99.90;;;;;;6215723;23;20695;-76
2021/07/29 06:51:46;;;;;;;2.80;0.80;;;24.30;99.90;;;;;;6216027;23;20180;-76
2021/07/29 06:54:13;;;;;;;3.72;0.70;;;24.70;99.90;;;;;;6216101;23;20176;-75
2021/07/29 06:56:40;;;;;;;4.80;0.80;;;25.20;99.90;;;;;;6215977;23;20262;-76
2021/07/29 06:59:07;;;;;;;2.63;0.65;;;24.90;99.90;;;;;;6215422;23;20730;-76
2021/07/29 07:01:35;;;;;;;4.03;0.60;;;24.50;99.90;;;;;;6215729;23;20181;-75
2021/07/29 07:04:02;;;;;;;2.85;1.15;;;24.30;99.90;;;;;;6215731;23;20698;-75
2021/07/29 07:06:30;;;;;;;2.03;0.70;;;24.20;99.90;;;;;;6215139;23;20187;-75
2021/07/29 07:08:59;;;;;;;2.47;0.60;;;24.20;99.90;;;;;;6215221;23;20205;-74
2021/07/29 07:11:26;;;;;;;4.78;0.70;;;24.60;99.90;;;;;;6215843;23;20540;-75
2021/07/29 07:13:52;;;;;;;2.90;0.63;;;25.00;99.90;;;;;;6215781;23;20186;-75
2021/07/29 07:16:19;;;;;;;1.60;0.80;;;25.50;99.90;;;;;;6215624;23;20195;-75
2021/07/29 07:18:46;;;;;;;2.15;0.60;;;25.60;99.50;;;;;;6215914;23;20513;-76
2021/07/29 07:21:13;;;;;;;1.63;0.70;;;25.40;99.90;;;;;;6216165;23;20182;-77
2021/07/29 07:23:41;;;;;;;1.92;0.60;;;25.50;99.60;;;;;;6215709;23;20183;-77
2021/07/29 07:26:14;;;;;;;4.35;0.80;;;25.40;99.80;;;;;;6215582;23;20188;-77
2021/07/29 07:28:41;;;;;;;1.10;0.52;;;24.60;99.90;;;;;;6215569;23;20206;-76
2021/07/29 07:31:08;;;;;;;1.98;0.57;;;24.60;99.90;;;;;;6214905;23;20184;-76
2021/07/29 07:33:35;;;;;;;3.10;0.98;;;24.60;99.90;;;;;;6215428;23;20239;-77
2021/07/29 07:36:02;;;;;;;3.00;0.70;;;24.30;99.90;;;;;;6215335;23;20476;-76
2021/07/29 07:38:29;;;;;;;7.07;1.40;;;24.30;99.90;;;;;;6215055;23;20216;-76
2021/07/29 07:40:57;;;;;;;3.25;1.25;;;24.30;99.90;;;;;;6215702;23;20177;-76
2021/07/29 07:43:25;;;;;;;6.25;1.15;;;24.30;99.90;;;;;;6215100;23;20187;-76
2021/07/29 07:45:51;;;;;;;2.67;0.98;;;24.10;99.50;;;;;;6215681;23;20179;-77
2021/07/29 07:48:18;;;;;;;2.17;0.85;;;23.70;99.90;;;;;;6214908;23;20524;-75
2021/07/29 07:50:47;;;;;;;4.65;0.88;;;23.50;99.90;;;;;;6214949;23;20675;-77
2021/07/29 07:53:13;;;;;;;3.08;0.73;;;22.90;99.90;;;;;;6215322;23;20176;-76
2021/07/29 07:55:40;;;;;;;3.30;0.88;;;22.50;99.90;;;;;;6214968;23;20614;-76
2021/07/29 07:58:08;;;;;;;3.78;0.88;;;22.70;99.90;;;;;;6215244;23;20540;-75
2021/07/29 08:00:35;;;;;;;3.65;0.90;;;22.50;99.90;;;;;;6215175;23;20180;-75
2021/07/29 08:03:02;;;;;;;2.65;0.90;;;23.30;99.90;;;;;;6215635;23;20262;-76
2021/07/29 08:05:29;;;;;;;2.95;0.85;;;23.90;99.90;;;;;;6215765;23;20176;-77
2021/07/29 08:07:57;;;;;;;4.43;0.63;;;23.40;99.90;;;;;;6215473;23;20196;-76
2021/07/29 08:10:24;;;;;;;2.78;0.75;;;23.70;99.90;;;;;;6214891;23;20643;-76
2021/07/29 08:12:51;;;;;;;1.73;0.80;;;24.40;99.80;;;;;;6215025;23;20583;-77
2021/07/29 08:15:19;;;;;;;4.20;0.77;;;25.00;99.50;;;;;;6215578;23;20180;-76
2021/07/29 08:17:46;;;;;;;2.65;0.90;;;25.40;98.60;;;;;;6215301;23;20212;-77
2021/07/29 08:20:13;;;;;;;2.53;0.73;;;25.90;98.40;;;;;;6215133;23;20654;-77
2021/07/29 08:22:40;;;;;;;2.92;0.80;;;26.10;98.00;;;;;;6215137;23;20636;-76
2021/07/29 08:25:07;;;;;;;5.40;1.35;;;26.80;97.40;;;;;;6215263;23;20519;-77
2021/07/29 08:27:35;;;;;;;3.38;1.00;;;27.10;96.70;;;;;;6215187;23;20203;-76
2021/07/29 08:32:35;;;;;;;2.40;0.80;;;26.20;96.00;;;;;;6155699;23;20186;-75
2021/07/29 08:35:02;;;;;;;1.10;0.65;;;25.70;96.70;;;;;;6155619;23;20184;-75
2021/07/29 08:37:29;;;;;;;2.00;0.70;;;25.30;96.60;;;;;;6154772;23;20499;-75
2021/07/29 08:39:56;;;;;;;2.63;0.88;;;25.40;97.20;;;;;;6155394;23;20184;-75
2021/07/29 08:42:26;;;;;;;3.65;0.80;;;25.80;96.50;;;;;;6155491;23;20182;-75
2021/07/29 08:44:52;;;;;;;3.03;0.80;;;25.20;96.50;;;;;;6155478;23;20200;-75
2021/07/29 08:47:24;;;;;;;2.35;0.80;;;25.30;97.20;;;;;;6154842;23;20265;-76
2021/07/29 08:49:55;;;;;;;1.73;0.70;;;25.10;97.40;;;;;;6156121;23;20181;-76
2021/07/29 08:52:22;;;;;;;2.85;0.70;;;25.20;96.90;;;;;;6157128;23;20178;-75
2021/07/29 08:54:51;;;;;;;4.13;1.05;;;25.50;98.10;;;;;;6156597;23;20712;-75
2021/07/29 08:57:26;;;;;;;1.83;0.60;;;25.80;96.80;;;;;;6156937;23;20184;-75
2021/07/29 08:59:53;;;;;;;3.45;1.02;;;26.50;96.80;;;;;;6157411;23;20232;-76
2021/07/29 09:02:24;;;;;;;1.50;0.77;;;26.40;96.00;;;;;;6157482;23;20178;-75
2021/07/29 09:05:15;;;;;;;1.75;0.65;;;26.30;97.30;;;;;;6157084;23;20712;-76
2021/07/29 09:07:42;;;;;;;4.43;0.90;;;26.30;96.60;;;;;;6156622;23;20736;-76
2021/07/29 09:10:21;;;;;;;3.90;0.90;;;25.80;96.80;;;;;;6157179;23;20178;-76
2021/07/29 09:13:05;;;;;;;2.47;0.80;;;25.50;97.10;;;;;;6156875;23;20178;-76
2021/07/29 09:15:32;;;;;;;1.67;0.68;;;25.60;97.10;;;;;;6157288;23;20185;-75
2021/07/29 09:17:59;;;;;;;2.33;0.80;;;25.50;96.60;;;;;;6156712;23;20210;-75
2021/07/29 09:20:27;;;;;;;4.00;0.90;;;25.20;96.90;;;;;;6156002;23;20184;-76
2021/07/29 09:22:54;;;;;;;1.17;0.52;;;25.00;97.10;;;;;;6156288;23;20185;-76
2021/07/29 09:25:24;;;;;;;3.20;0.63;;;24.40;96.30;;;;;;6156647;23;20184;-75
2021/07/29 09:27:52;;;;;;;2.15;0.60;;;23.80;97.50;;;;;;6156229;23;20198;-75
2021/07/29 09:30:22;;;;;;;3.78;0.80;;;24.50;97.20;;;;;;6159464;23;20290;-75
2021/07/29 09:33:09;;;;;;;2.00;0.60;;;24.60;97.30;;;;;;6186596;23;20177;-75
2021/07/29 09:35:45;;;;;;;3.92;0.63;;;25.10;96.80;;;;;;6186474;23;20203;-75
2021/07/29 09:38:21;;;;;;;2.05;1.00;;;25.20;98.00;;;;;;6186020;23;20710;-76
2021/07/29 09:40:50;;;;;;;5.05;0.85;;;25.40;96.30;;;;;;6186236;23;20180;-74
2021/07/29 09:43:19;;;;;;;4.28;0.50;;;25.80;96.20;;;;;;6186551;23;20184;-75
2021/07/29 09:45:47;;;;;;;1.15;0.52;;;25.60;96.70;;;;;;6186919;23;20177;-75
2021/07/29 09:48:14;;;;;;;7.22;1.58;;;25.70;96.00;;;;;;6186418;23;20204;-75
2021/07/29 09:50:43;;;;;;;2.78;0.90;;;25.40;95.70;;;;;;6186676;23;20219;-75
2021/07/29 09:53:10;;;;;;;2.97;0.80;;;25.30;96.20;;;;;;6186376;23;20177;-76
2021/07/29 09:55:37;;;;;;;2.42;0.68;;;25.20;96.20;;;;;;6186759;23;20187;-75
2021/07/29 09:58:05;;;;;;;3.03;0.80;;;25.50;97.10;;;;;;6186510;23;20216;-75
2021/07/29 10:00:37;;;;;;;3.55;0.82;;;25.30;96.10;;;;;;6186407;23;20177;-75
2021/07/29 10:03:06;;;;;;;1.92;0.82;;;25.50;97.10;;;;;;6186171;23;20181;-76
2021/07/29 10:05:41;;;;;;;4.28;0.70;;;24.90;96.60;;;;;;6186669;23;20180;-76
2021/07/29 10:08:18;;;;;;;2.38;0.82;;;24.80;96.80;;;;;;6185745;23;20209;-76
2021/07/29 10:10:45;;;;;;;4.75;0.88;;;24.90;97.30;;;;;;6186423;23;20188;-75
2021/07/29 10:13:12;;;;;;;3.83;0.85;;;24.60;97.30;;;;;;6186339;23;20178;-75
2021/07/29 10:15:40;;;;;;;1.80;0.70;;;24.20;97.50;;;;;;6185967;23;20572;-75
2021/07/29 10:18:09;;;;;;;3.22;0.80;;;23.60;97.50;;;;;;6186313;23;20213;-75
2021/07/29 10:20:37;;;;;;;2.17;0.73;;;23.30;97.70;;;;;;6186376;23;20185;-75
2021/07/29 10:23:51;;;;;;;2.95;0.70;;;23.10;97.90;;;;;;6185857;23;20531;-75
2021/07/29 10:26:17;;;;;;;3.97;0.73;;;22.90;97.60;;;;;;6186116;23;20185;-76
2021/07/29 10:28:44;;;;;;;1.92;0.60;;;23.00;97.90;;;;;;6186257;23;20201;-75
2021/07/29 10:31:16;;;;;;;2.50;1.00;;;22.90;98.30;;;;;;6185581;23;20192;-75
2021/07/29 10:33:43;;;;;;;1.90;0.60;;;22.90;97.80;;;;;;6185651;23;20187;-76
2021/07/29 10:36:43;;;;;;;3.55;0.63;;;23.00;97.60;;;;;;6186018;23;20178;-76
2021/07/29 10:39:11;;;;;;;1.98;0.82;;;23.20;98.40;;;;;;6185633;23;20213;-76
2021/07/29 10:41:53;;;;;;;3.42;0.73;;;23.50;97.80;;;;;;6185717;23;20183;-75
2021/07/29 10:44:47;;;;;;;2.05;0.70;;;23.40;96.50;;;;;;6185594;23;20183;-75
2021/07/29 10:47:18;;;;;;;4.13;0.70;;;23.40;97.60;;;;;;6185389;23;20182;-75
2021/07/29 10:50:20;;;;;;;2.63;0.80;;;23.60;97.40;;;;;;6185836;23;20185;-74
2021/07/29 10:52:48;;;;;;;0.70;0.60;;;23.50;96.00;;;;;;6185595;23;20188;-75
2021/07/29 10:55:17;;;;;;;1.70;0.70;;;23.60;96.70;;;;;;6185958;23;20633;-76
2021/07/29 10:58:13;;;;;;;0.75;0.50;;;23.50;96.60;;;;;;6185442;23;20200;-76
2021/07/29 11:00:40;;;;;;;2.33;0.98;;;23.80;97.30;;;;;;6185759;23;20182;-75
2021/07/29 11:03:22;;;;;;;4.07;0.70;;;23.80;96.60;;;;;;6185932;23;20181;-77
2021/07/29 11:05:54;;;;;;;2.25;0.80;;;24.10;96.80;;;;;;6185696;23;20184;-75
2021/07/29 11:08:28;;;;;;;1.73;0.82;;;24.10;96.30;;;;;;6185645;23;20208;-76
2021/07/29 11:11:00;;;;;;;1.10;0.80;;;24.00;96.10;;;;;;6185998;23;20177;-76
2021/07/29 11:13:28;;;;;;;2.45;0.55;;;23.90;96.50;;;;;;6185262;23;20181;-75
2021/07/29 11:15:57;;;;;;;2.15;0.50;;;23.80;96.20;;;;;;6185668;23;20177;-76
2021/07/29 11:18:23;;;;;;;4.88;0.85;;;23.70;96.20;;;;;;6185509;23;20216;-75
2021/07/29 11:20:51;;;;;;;1.60;0.57;;;23.60;97.20;;;;;;6185942;23;20502;-75
2021/07/29 11:23:33;;;;;;;1.05;0.60;;;23.90;97.30;;;;;;6185903;23;20188;-76
2021/07/29 11:26:03;;;;;;;1.45;0.60;;;23.70;96.10;;;;;;6185713;23;20177;-76
2021/07/29 11:28:30;;;;;;;1.48;0.70;;;23.50;96.50;;;;;;6185434;23;20201;-76
2021/07/29 11:30:57;;;;;;;2.55;0.80;;;23.40;97.00;;;;;;6185346;23;20191;-76
2021/07/29 11:33:25;;;;;;;1.75;0.80;;;23.50;96.70;;;;;;6185530;23;20181;-78
2021/07/29 11:35:53;;;;;;;3.45;0.65;;;23.70;97.00;;;;;;6185894;23;20177;-77
2021/07/29 11:38:21;;;;;;;2.97;0.63;;;23.80;96.80;;;;;;6185669;23;20212;-76
2021/07/29 11:40:48;;;;;;;1.90;0.73;;;23.50;97.10;;;;;;6185832;23;20177;-78
2021/07/29 11:43:23;;;;;;;1.98;0.73;;;23.30;97.50;;;;;;6185659;23;20177;-78
2021/07/29 11:45:51;;;;;;;1.98;0.80;;;22.80;98.40;;;;;;6185296;23;20183;-78
2021/07/29 11:48:22;;;;;;;2.95;0.90;;;22.60;99.30;;;;;;6185163;23;20201;-77
2021/07/29 11:50:50;;;;;;;2.03;0.70;;;22.80;99.80;;;;;;6185579;23;20182;-78
2021/07/29 11:53:18;;;;;;;2.28;0.90;;;23.00;99.60;;;;;;6185188;23;20177;-78
2021/07/29 11:55:53;;;;;;;1.70;0.80;;;23.10;98.60;;;;;;6185643;23;20177;-76
2021/07/29 11:58:21;;;;;;;5.63;1.00;;;23.00;98.50;;;;;;6185013;23;20572;-78
2021/07/29 12:00:49;;;;;;;1.10;0.60;;;23.00;97.90;;;;;;6185629;23;20177;-78
2021/07/29 12:03:26;;;;;;;2.55;0.80;;;23.00;98.60;;;;;;6185500;23;20188;-77
2021/07/29 12:05:55;;;;;;;1.85;0.70;;;23.10;98.50;;;;;;6185655;23;20235;-78
2021/07/29 12:08:22;;;;;;;2.88;0.93;;;23.20;98.30;;;;;;6185121;23;20203;-77
2021/07/29 12:10:52;;;;;;;2.67;0.80;;;23.30;98.20;;;;;;6184927;23;20199;-76
2021/07/29 12:13:20;;;;;;;1.73;0.70;;;23.20;97.20;;;;;;6185040;23;20191;-75
2021/07/29 12:15:49;;;;;;;2.22;0.70;;;23.30;96.60;;;;;;6184642;23;20181;-77
2021/07/29 12:18:17;;;;;;;2.25;0.80;;;23.30;96.50;;;;;;6185297;23;20251;-78
2021/07/29 12:20:44;;;;;;;3.47;0.85;;;23.20;96.50;;;;;;6185322;23;20655;-76
2021/07/29 12:23:12;;;;;;;0.90;0.60;;;23.00;97.00;;;;;;6185159;23;20177;-77
2021/07/29 12:25:38;;;;;;;1.63;0.60;;;23.20;97.10;;;;;;6187511;23;20183;-76
2021/07/29 12:28:05;;;;;;;2.35;0.80;;;23.00;96.60;;;;;;6187733;23;20305;-76
2021/07/29 12:30:38;;;;;;;2.08;0.70;;;23.00;97.50;;;;;;6186895;23;20272;-75
2021/07/29 12:33:11;;;;;;;2.50;0.90;;;23.10;96.30;;;;;;6187351;23;20177;-77
2021/07/29 12:35:40;;;;;;;2.20;0.70;;;22.90;96.50;;;;;;6186867;23;20497;-76
2021/07/29 12:38:07;;;;;;;1.17;0.65;;;22.80;96.40;;;;;;6187293;23;20200;-76
2021/07/29 12:40:35;;;;;;;3.30;1.00;;;23.00;96.80;;;;;;6187009;23;20544;-77
2021/07/29 12:43:21;;;;;;;2.00;0.70;;;23.00;96.00;;;;;;6187563;23;20532;-76
2021/07/29 12:45:55;;;;;;;2.60;0.70;;;22.90;95.70;;;;;;6187073;23;20651;-77
2021/07/29 12:48:25;;;;;;;2.05;0.80;;;22.80;95.30;;;;;;6186802;23;20283;-77
2021/07/29 12:50:52;;;;;;;2.53;0.70;;;22.80;95.70;;;;;;6186936;23;20199;-76
2021/07/29 12:53:20;;;;;;;2.38;0.95;;;22.80;96.40;;;;;;6186692;23;20188;-78
2021/07/29 12:55:48;;;;;;;2.33;0.98;;;23.00;96.50;;;;;;6186519;23;20228;-77
2021/07/29 12:58:16;;;;;;;2.88;1.65;;;23.10;96.50;;;;;;6187005;23;20197;-78
2021/07/29 13:00:44;;;;;;;1.90;0.80;;;23.30;96.40;;;;;;6186972;23;20259;-77